Time;durP1;ratioP1;P1;durP2;ratioP2;P2;SDS_P1;SDS_P2;PMS_P1;PMS_P2;Temp;Humidity;BMP_temperature;BMP_pressure;BME280_temperature;BME280_humidity;BME280_pressure;Samples;Min_cycle;Max_cycle;Signal;HPM_P1;HPM_P2
2022/12/10 00:02:06;;;;;;;78.40;48.95;;;;;;;-3.29;100.00;100686.78;5037454;28;20060;-86
2022/12/10 00:04:31;;;;;;;82.05;50.72;;;;;;;-3.38;100.00;100660.72;5040966;28;20083;-86
2022/12/10 00:06:56;;;;;;;77.63;49.40;;;;;;;-3.32;100.00;100681.53;5025340;28;20029;-87
2022/12/10 00:09:22;;;;;;;80.60;50.40;;;;;;;-3.38;100.00;100668.53;5025053;28;20021;-86
2022/12/10 00:11:47;;;;;;;78.90;49.00;;;;;;;-3.32;100.00;100685.00;5031120;28;20095;-86
2022/12/10 00:14:14;;;;;;;77.90;49.42;;;;;;;-3.39;100.00;100679.78;5025260;28;20021;-86
2022/12/10 00:16:39;;;;;;;82.15;50.63;;;;;;;-3.36;100.00;100685.88;5025443;28;20029;-86
2022/12/10 00:19:04;;;;;;;81.40;50.38;;;;;;;-3.26;100.00;100686.75;5027324;28;20025;-86
2022/12/10 00:21:32;;;;;;;82.22;50.45;;;;;;;-3.26;100.00;100691.97;5035228;28;20040;-86
2022/12/10 00:23:59;;;;;;;81.22;51.65;;;;;;;-3.31;100.00;100678.06;5030601;28;20032;-86
2022/12/10 00:26:27;;;;;;;81.10;52.33;;;;;;;-3.22;100.00;100693.72;5028254;28;20197;-86
2022/12/10 00:28:53;;;;;;;81.65;51.33;;;;;;;-3.22;100.00;100690.25;5029407;28;20296;-86
2022/12/10 00:31:25;;;;;;;82.70;51.38;;;;;;;-3.28;100.00;100689.38;5025962;28;20389;-86
2022/12/10 00:33:54;;;;;;;83.47;50.75;;;;;;;-3.24;100.00;100703.25;5034989;28;20033;-87
2022/12/10 00:36:22;;;;;;;82.93;51.75;;;;;;;-3.22;100.00;100709.31;5033551;28;20430;-86
2022/12/10 00:38:48;;;;;;;87.43;54.00;;;;;;;-3.27;100.00;100696.31;5026338;28;20025;-87
2022/12/10 00:41:14;;;;;;;89.93;55.60;;;;;;;-3.27;100.00;100701.50;5017079;28;20484;-86
2022/12/10 00:43:40;;;;;;;93.28;57.00;;;;;;;-3.22;100.00;100692.84;5015067;28;20462;-86
2022/12/10 00:46:06;;;;;;;86.80;54.60;;;;;;;-3.21;100.00;100689.41;5025189;28;20029;-86
2022/12/10 00:48:32;;;;;;;89.88;54.13;;;;;;;-3.24;100.00;100690.25;5024470;28;20045;-86
2022/12/10 00:51:09;;;;;;;85.10;54.17;;;;;;;-3.26;100.00;100684.16;5030761;28;20159;-86
2022/12/10 00:53:36;;;;;;;92.00;54.28;;;;;;;-3.27;100.00;100682.41;5044053;28;20108;-86
2022/12/10 00:56:03;;;;;;;92.88;56.15;;;;;;;-3.23;100.00;100685.91;5044582;28;20040;-87
2022/12/10 00:58:29;;;;;;;88.32;54.00;;;;;;;-3.28;100.00;100670.28;5029443;28;20108;-86
2022/12/10 01:01:06;;;;;;;91.57;55.30;;;;;;;-3.18;100.00;100684.19;5033362;28;20443;-86
2022/12/10 01:03:32;;;;;;;95.75;57.60;;;;;;;-3.14;100.00;100678.13;5042051;28;20631;-86
2022/12/10 01:05:57;;;;;;;96.32;58.13;;;;;;;-3.13;100.00;100683.34;5029614;28;20460;-85
2022/12/10 01:08:22;;;;;;;90.05;55.25;;;;;;;-3.22;100.00;100666.81;5027781;28;20021;-86
2022/12/10 01:10:53;;;;;;;91.97;56.90;;;;;;;-3.22;100.00;100672.03;5026549;28;20545;-86
2022/12/10 01:13:18;;;;;;;94.13;57.13;;;;;;;-3.30;100.00;100667.69;5047860;28;20168;-86
2022/12/10 01:15:43;;;;;;;89.55;54.67;;;;;;;-3.27;100.00;100685.88;5036781;28;20052;-86
2022/12/10 01:18:09;;;;;;;94.20;57.17;;;;;;;-3.32;100.00;100678.94;5028565;28;20489;-85
2022/12/10 01:20:36;;;;;;;93.50;56.13;;;;;;;-3.37;100.00;100683.28;5030683;28;20115;-86
2022/12/10 01:23:01;;;;;;;92.43;55.40;;;;;;;-3.41;100.00;100686.72;5057518;28;20322;-85
2022/12/10 01:25:27;;;;;;;98.28;57.72;;;;;;;-3.48;100.00;100687.56;5050464;28;20029;-85
2022/12/10 01:27:52;;;;;;;95.82;57.67;;;;;;;-3.58;100.00;100684.94;5057462;28;20099;-86
2022/12/10 01:30:17;;;;;;;92.10;55.58;;;;;;;-3.60;100.00;100672.75;5037428;28;20470;-85
2022/12/10 01:32:43;;;;;;;95.30;56.22;;;;;;;-3.53;100.00;100705.75;5030577;28;20029;-86
2022/12/10 01:35:08;;;;;;;99.07;58.13;;;;;;;-3.62;100.00;100690.97;5028878;28;20037;-86
2022/12/10 01:37:33;;;;;;;93.70;55.83;;;;;;;-3.56;100.00;100706.59;5030325;28;20041;-85
2022/12/10 01:39:58;;;;;;;94.53;57.33;;;;;;;-3.63;100.00;100702.25;5026219;28;20033;-85
2022/12/10 01:42:24;;;;;;;94.85;57.47;;;;;;;-3.66;100.00;100696.16;5030351;28;20109;-86
2022/12/10 01:44:49;;;;;;;98.05;59.35;;;;;;;-3.51;100.00;100710.13;5028788;28;20021;-85
2022/12/10 01:47:14;;;;;;;100.22;57.45;;;;;;;-3.42;100.00;100716.22;5033425;28;20025;-86
2022/12/10 01:49:40;;;;;;;98.70;56.97;;;;;;;-3.55;100.00;100699.69;5041828;28;20051;-86
2022/12/10 01:52:08;;;;;;;97.93;57.30;;;;;;;-3.40;100.00;100714.47;5028635;28;20670;-86
2022/12/10 01:54:38;;;;;;;99.72;59.67;;;;;;;-3.24;100.00;100725.81;5027741;28;20475;-86
2022/12/10 01:57:09;;;;;;;97.15;57.60;;;;;;;-3.26;100.00;100721.50;5043006;28;20021;-86
2022/12/10 01:59:36;;;;;;;97.65;58.38;;;;;;;-3.21;100.00;100705.88;5025927;28;20922;-86
2022/12/10 02:02:22;;;;;;;103.90;59.28;;;;;;;-3.12;100.00;100716.31;5029781;28;20052;-87
2022/12/10 02:04:50;;;;;;;97.40;55.92;;;;;;;-3.07;100.00;100725.00;5026331;28;20025;-86
2022/12/10 02:07:23;;;;;;;96.57;55.55;;;;;;;-3.08;100.00;100720.66;5024536;28;20025;-86
2022/12/10 02:10:23;;;;;;;95.13;54.95;;;;;;;-2.99;100.00;100727.63;5025391;28;20482;-86
2022/12/10 02:12:54;;;;;;;96.07;56.00;;;;;;;-2.97;100.00;100725.03;5025857;28;20045;-85
2022/12/10 02:15:25;;;;;;;98.65;55.90;;;;;;;-2.92;100.00;100726.78;5028504;28;20025;-86
2022/12/10 02:17:57;;;;;;;98.43;55.47;;;;;;;-2.91;100.00;100725.06;5007338;28;20498;-86
2022/12/10 02:20:29;;;;;;;100.93;55.95;;;;;;;-2.89;100.00;100720.69;5018275;28;20029;-86
2022/12/10 02:22:59;;;;;;;99.55;57.17;;;;;;;-2.87;100.00;100719.84;5026839;28;20025;-87
2022/12/10 02:25:47;;;;;;;100.15;55.08;;;;;;;-2.87;100.00;100721.59;5030063;28;20094;-86
2022/12/10 02:28:25;;;;;;;101.28;58.78;;;;;;;-2.99;100.00;100700.72;5042854;28;20033;-85
2022/12/10 02:30:53;;;;;;;100.57;55.33;;;;;;;-2.86;100.00;100716.38;5018477;28;20632;-85
2022/12/10 02:33:20;;;;;;;100.82;56.88;;;;;;;-2.82;100.00;100712.03;5006815;28;20128;-85
2022/12/10 02:35:49;;;;;;;101.75;57.88;;;;;;;-2.80;100.00;100705.97;5017887;28;20386;-85
2022/12/10 02:38:27;;;;;;;98.97;55.38;;;;;;;-2.90;100.00;100688.59;5006530;28;20028;-85
2022/12/10 02:40:59;;;;;;;107.82;58.17;;;;;;;-2.92;100.00;100689.47;5010612;28;20034;-86
2022/12/10 02:43:27;;;;;;;104.43;56.35;;;;;;;-2.84;100.00;100696.41;5019285;28;20215;-85
2022/12/10 02:45:54;;;;;;;102.22;58.10;;;;;;;-2.84;100.00;100695.56;5026298;28;20140;-86
2022/12/10 02:48:19;;;;;;;107.05;56.53;;;;;;;-2.83;100.00;100697.28;5026003;28;20124;-87
2022/12/10 02:50:45;;;;;;;100.15;56.80;;;;;;;-2.83;100.00;100686.88;5023992;28;20025;-87
2022/12/10 02:53:10;;;;;;;102.75;58.15;;;;;;;-2.81;100.00;100688.59;5026511;28;20386;-86
2022/12/10 02:56:05;;;;;;;103.20;58.67;;;;;;;-2.74;100.00;100701.63;5025936;28;20417;-86
2022/12/10 02:58:45;;;;;;;106.25;58.67;;;;;;;-2.74;100.00;100696.44;5024991;28;20026;-86
2022/12/10 03:01:23;;;;;;;97.65;54.03;;;;;;;-2.85;100.00;100691.19;5042373;28;20033;-86
2022/12/10 03:04:12;;;;;;;103.38;57.65;;;;;;;-2.85;100.00;100686.84;5024031;28;20079;-86
2022/12/10 03:06:51;;;;;;;98.60;57.40;;;;;;;-2.69;100.00;100708.56;5025992;28;20029;-87
2022/12/10 03:09:30;;;;;;;100.00;55.20;;;;;;;-2.84;100.00;100690.34;5022860;28;20037;-87
2022/12/10 03:12:00;;;;;;;100.90;54.75;;;;;;;-2.75;100.00;100705.97;5025899;28;20052;-86
2022/12/10 03:14:30;;;;;;;100.20;56.08;;;;;;;-2.69;100.00;100716.38;5025354;28;20029;-86
2022/12/10 03:16:58;;;;;;;97.55;54.85;;;;;;;-2.78;100.00;100706.84;5025952;28;20018;-86
2022/12/10 03:19:32;;;;;;;100.55;55.22;;;;;;;-2.69;100.00;100712.91;5024534;28;20541;-86
2022/12/10 03:21:59;;;;;;;97.47;56.67;;;;;;;-2.70;100.00;100722.47;5030151;28;20057;-87
2022/12/10 03:24:27;;;;;;;102.65;56.60;;;;;;;-2.67;100.00;100719.88;5008641;28;20032;-87
2022/12/10 03:26:52;;;;;;;91.25;53.85;;;;;;;-2.64;100.00;100719.88;5027919;28;20034;-87
2022/12/10 03:29:30;;;;;;;97.88;53.45;;;;;;;-2.70;100.00;100705.97;5025726;28;20623;-86
2022/12/10 03:31:56;;;;;;;99.65;56.03;;;;;;;-2.65;100.00;100714.66;5041840;28;20037;-87
2022/12/10 03:34:22;;;;;;;96.30;52.33;;;;;;;-2.65;100.00;100705.09;5054738;28;20025;-87
2022/12/10 03:36:49;;;;;;;95.75;52.70;;;;;;;-2.66;100.00;100710.31;5051834;28;20109;-87
2022/12/10 03:39:15;;;;;;;105.05;55.15;;;;;;;-2.72;100.00;100711.16;5044327;28;20056;-87
2022/12/10 03:41:40;;;;;;;99.75;53.78;;;;;;;-2.63;100.00;100724.22;5054392;28;20033;-87
2022/12/10 03:44:06;;;;;;;92.53;51.65;;;;;;;-2.64;100.00;100725.06;5053380;28;20106;-87
2022/12/10 03:46:31;;;;;;;89.20;49.83;;;;;;;-2.67;100.00;100708.59;5050564;28;20134;-87
2022/12/10 03:48:59;;;;;;;90.40;52.25;;;;;;;-2.59;100.00;100718.16;5028934;28;20036;-86
2022/12/10 03:51:24;;;;;;;91.40;49.45;;;;;;;-2.58;100.00;100719.88;5028168;28;20033;-87
2022/12/10 03:53:50;;;;;;;90.45;50.72;;;;;;;-2.76;100.00;100689.47;5028829;28;20040;-86
2022/12/10 03:56:17;;;;;;;93.10;50.10;;;;;;;-2.67;100.00;100706.84;5027523;28;20470;-87
2022/12/10 03:58:42;;;;;;;92.35;51.67;;;;;;;-2.67;100.00;100706.84;5028868;28;20033;-86
2022/12/10 04:01:08;;;;;;;91.13;50.10;;;;;;;-2.65;100.00;100718.13;5027690;28;20039;-87
2022/12/10 04:03:38;;;;;;;86.47;46.97;;;;;;;-2.61;100.00;100730.28;5024867;28;20475;-86
2022/12/10 04:06:07;;;;;;;97.03;50.25;;;;;;;-2.67;100.00;100725.09;5027501;28;20163;-86
2022/12/10 04:08:33;;;;;;;93.35;50.88;;;;;;;-2.57;100.00;100726.81;5021886;28;20025;-86
2022/12/10 04:11:04;;;;;;;91.90;50.80;;;;;;;-2.59;100.00;100728.56;5025824;28;20060;-86
2022/12/10 04:16:28;;;;;;;102.38;52.33;;;;;;;-2.61;100.00;100730.28;5024566;28;20098;-86
2022/12/10 04:19:06;;;;;;;100.60;51.70;;;;;;;-2.56;100.00;100727.69;5038303;28;20489;-87
2022/12/10 04:27:10;;;;;;;99.93;52.97;;;;;;;-2.55;100.00;100732.94;4998429;28;20550;-88
2022/12/10 04:29:36;;;;;;;100.15;52.00;;;;;;;-2.59;100.00;100723.38;4989602;28;20048;-87
2022/12/10 04:32:01;;;;;;;98.93;51.70;;;;;;;-2.51;100.00;100733.78;5001384;28;20052;-87
2022/12/10 04:34:27;;;;;;;95.78;51.83;;;;;;;-2.52;100.00;100735.50;5002501;28;20038;-87
2022/12/10 04:36:53;;;;;;;96.25;51.30;;;;;;;-2.50;100.00;100743.34;4988744;28;20511;-87
2022/12/10 04:39:19;;;;;;;97.78;52.65;;;;;;;-2.60;100.00;100716.41;4976072;28;20045;-86
2022/12/10 04:41:46;;;;;;;96.05;50.67;;;;;;;-2.45;100.00;100743.34;5006568;28;20033;-87
2022/12/10 04:44:12;;;;;;;100.63;52.47;;;;;;;-2.42;100.00;100740.75;5002065;28;20104;-87
2022/12/10 04:46:40;;;;;;;101.68;53.67;;;;;;;-2.44;100.00;100742.47;4989405;28;20034;-87
2022/12/10 04:49:06;;;;;;;99.32;52.97;;;;;;;-2.42;100.00;100741.63;4988271;28;20119;-87
2022/12/10 04:51:31;;;;;;;102.70;53.20;;;;;;;-2.44;100.00;100748.56;4994887;28;20185;-86
2022/12/10 04:53:57;;;;;;;96.38;51.25;;;;;;;-2.60;100.00;100724.22;4986641;28;20845;-87
2022/12/10 04:56:22;;;;;;;94.80;51.22;;;;;;;-2.44;100.00;100748.56;4985879;28;20638;-86
2022/12/10 04:58:48;;;;;;;97.65;52.25;;;;;;;-2.48;100.00;100740.72;4988426;28;20415;-86
2022/12/10 05:01:13;;;;;;;104.72;52.47;;;;;;;-2.47;100.00;100750.28;5000642;28;20050;-86
2022/12/10 05:03:39;;;;;;;101.65;52.90;;;;;;;-2.54;100.00;100747.69;4998122;28;20646;-86
2022/12/10 05:06:11;;;;;;;111.13;55.42;;;;;;;-2.62;100.00;100743.34;5028566;28;20033;-86
2022/12/10 05:08:38;;;;;;;109.18;54.72;;;;;;;-2.56;100.00;100748.53;5023676;28;20044;-87
2022/12/10 05:11:06;;;;;;;108.53;55.13;;;;;;;-2.62;100.00;100740.72;5028362;28;20041;-86
2022/12/10 05:13:31;;;;;;;106.70;55.58;;;;;;;-2.56;100.00;100749.41;5026820;28;20032;-87
2022/12/10 05:15:57;;;;;;;109.32;55.72;;;;;;;-2.54;100.00;100745.09;5028107;28;20273;-87
2022/12/10 05:18:22;;;;;;;112.53;56.72;;;;;;;-2.53;100.00;100739.00;5028349;28;20116;-86
2022/12/10 05:20:48;;;;;;;105.75;56.05;;;;;;;-2.57;100.00;100739.84;5028208;28;20043;-86
2022/12/10 05:23:46;;;;;;;111.80;55.53;;;;;;;-2.61;100.00;100727.69;5027789;28;20029;-86
2022/12/10 05:26:08;;;;;;;106.82;55.60;;;;;;;-2.56;100.00;100749.41;5025911;28;20057;-86
2022/12/10 05:28:36;;;;;;;111.13;57.08;;;;;;;-2.56;100.00;100743.31;5032150;28;20078;-86
2022/12/10 05:31:03;;;;;;;109.78;54.92;;;;;;;-2.55;100.00;100752.88;5030312;28;20040;-86
2022/12/10 05:33:29;;;;;;;111.53;57.67;;;;;;;-2.53;100.00;100745.94;5025690;28;20033;-86
2022/12/10 05:36:03;;;;;;;114.60;58.55;;;;;;;-2.51;100.00;100752.00;5027666;28;20041;-86
2022/12/10 05:38:30;;;;;;;112.85;57.05;;;;;;;-2.54;100.00;100733.78;5027763;28;20045;-86
2022/12/10 05:41:00;;;;;;;119.65;59.25;;;;;;;-2.48;100.00;100741.59;5046306;28;20033;-87
2022/12/10 05:43:25;;;;;;;123.40;59.50;;;;;;;-2.56;100.00;100733.78;5037943;28;20442;-86
2022/12/10 05:45:50;;;;;;;121.47;60.28;;;;;;;-2.48;100.00;100741.59;5043952;28;20041;-87
2022/12/10 05:48:16;;;;;;;117.43;60.13;;;;;;;-2.59;100.00;100731.19;5049838;28;20036;-87
2022/12/10 05:50:42;;;;;;;114.53;58.35;;;;;;;-2.51;100.00;100747.69;5052025;28;20059;-86
2022/12/10 05:53:08;;;;;;;111.43;57.95;;;;;;;-2.53;100.00;100739.00;5031094;28;20112;-86
2022/12/10 05:55:33;;;;;;;106.57;54.60;;;;;;;-2.53;100.00;100746.81;5027895;28;20029;-86
2022/12/10 05:57:59;;;;;;;110.63;55.70;;;;;;;-2.57;100.00;100746.81;5027317;28;20026;-86
2022/12/10 06:00:27;;;;;;;111.20;56.83;;;;;;;-2.54;100.00;100752.03;5029921;28;20382;-87
2022/12/10 06:02:52;;;;;;;115.00;56.78;;;;;;;-2.55;100.00;100753.78;5030282;28;20071;-87
2022/12/10 06:05:17;;;;;;;110.85;56.30;;;;;;;-2.69;100.00;100725.94;5028932;28;20462;-87
2022/12/10 06:07:43;;;;;;;102.55;52.50;;;;;;;-2.84;100.00;100704.22;5026536;28;20065;-86
2022/12/10 06:10:09;;;;;;;100.22;54.10;;;;;;;-2.58;100.00;100758.09;5028395;28;20037;-86
2022/12/10 06:12:34;;;;;;;107.07;53.97;;;;;;;-2.53;100.00;100765.06;5026832;28;20072;-86
2022/12/10 06:14:59;;;;;;;106.20;54.92;;;;;;;-2.60;100.00;100749.41;5027902;28;20443;-86
2022/12/10 06:17:25;;;;;;;112.32;57.13;;;;;;;-2.58;100.00;100739.88;5025961;28;20029;-86
2022/12/10 06:19:50;;;;;;;104.53;53.90;;;;;;;-2.54;100.00;100752.03;5041917;28;20037;-86
2022/12/10 06:22:15;;;;;;;113.00;58.75;;;;;;;-2.47;100.00;100761.56;5048539;28;20100;-86
2022/12/10 06:24:41;;;;;;;104.55;55.53;;;;;;;-2.47;100.00;100756.34;5044746;28;20033;-86
2022/12/10 06:27:06;;;;;;;108.50;57.17;;;;;;;-2.60;100.00;100742.44;5027688;28;20095;-86
2022/12/10 06:29:31;;;;;;;112.13;55.70;;;;;;;-2.48;100.00;100757.22;5040979;28;20102;-86
2022/12/10 06:31:56;;;;;;;111.40;55.67;;;;;;;-2.55;100.00;100745.97;5047360;28;20033;-87
2022/12/10 06:34:22;;;;;;;109.95;56.95;;;;;;;-2.51;100.00;100755.53;5046039;28;20100;-87
2022/12/10 06:36:47;;;;;;;106.25;54.45;;;;;;;-2.47;100.00;100766.78;5014795;28;20178;-87
2022/12/10 06:39:13;;;;;;;102.35;54.03;;;;;;;-2.47;100.00;100769.38;5026150;28;20478;-87
2022/12/10 06:41:38;;;;;;;105.70;55.85;;;;;;;-2.47;100.00;100765.91;5040576;28;20031;-85
2022/12/10 06:44:07;;;;;;;105.55;54.65;;;;;;;-2.50;100.00;100761.59;5035438;28;20039;-86
2022/12/10 06:46:32;;;;;;;106.70;53.78;;;;;;;-2.51;100.00;100759.84;5027168;28;20525;-86
2022/12/10 06:48:58;;;;;;;111.40;55.60;;;;;;;-2.46;100.00;100778.09;5024952;28;20039;-87
2022/12/10 06:51:23;;;;;;;102.50;53.40;;;;;;;-2.50;100.00;100772.03;5042300;28;20028;-87
2022/12/10 06:53:49;;;;;;;113.35;55.00;;;;;;;-2.49;100.00;100784.19;5050130;28;20462;-87
2022/12/10 06:56:18;;;;;;;101.32;53.47;;;;;;;-2.52;100.00;100773.75;5050493;28;20021;-86
2022/12/10 06:58:44;;;;;;;103.75;55.10;;;;;;;-2.55;100.00;100773.72;5037608;28;20052;-87
2022/12/10 07:01:16;;;;;;;104.03;53.85;;;;;;;-2.47;100.00;100784.16;5040893;28;20033;-87
2022/12/10 07:03:42;;;;;;;96.95;50.10;;;;;;;-2.51;100.00;100791.09;5030183;28;20132;-86
2022/12/10 07:06:10;;;;;;;97.18;51.67;;;;;;;-2.53;100.00;100795.47;5025895;28;20312;-86
2022/12/10 07:08:36;;;;;;;112.30;55.95;;;;;;;-2.61;100.00;100790.22;5024772;28;20065;-86
2022/12/10 07:11:07;;;;;;;103.15;55.17;;;;;;;-2.51;100.00;100796.31;5035923;28;20075;-87
2022/12/10 07:13:33;;;;;;;104.07;53.15;;;;;;;-2.58;100.00;100798.06;5046464;28;20045;-86
2022/12/10 07:15:58;;;;;;;106.18;52.83;;;;;;;-2.58;100.00;100802.41;5032965;28;20013;-86
2022/12/10 07:18:24;;;;;;;101.55;52.00;;;;;;;-2.60;100.00;100805.00;5025257;28;20041;-87
2022/12/10 07:20:49;;;;;;;102.35;52.63;;;;;;;-2.57;100.00;100810.22;5034970;28;20036;-85
2022/12/10 07:23:14;;;;;;;97.22;51.72;;;;;;;-2.58;100.00;100808.47;5026800;28;20079;-85
2022/12/10 07:25:40;;;;;;;104.22;52.88;;;;;;;-2.64;100.00;100790.22;5025946;28;20901;-86
2022/12/10 07:28:05;;;;;;;104.63;53.53;;;;;;;-2.52;100.00;100810.22;5029009;28;20091;-87
2022/12/10 07:30:31;;;;;;;106.15;55.08;;;;;;;-2.55;100.00;100810.22;5050187;28;20176;-86
2022/12/10 07:32:57;;;;;;;102.40;54.05;;;;;;;-2.62;100.00;100809.34;5047876;28;20032;-85
2022/12/10 07:35:22;;;;;;;102.43;53.03;;;;;;;-2.60;100.00;100815.41;5027407;28;20556;-87
2022/12/10 07:37:47;;;;;;;106.03;55.75;;;;;;;-2.67;100.00;100816.28;5022888;28;20452;-87
2022/12/10 07:40:12;;;;;;;111.25;54.95;;;;;;;-2.71;100.00;100806.72;5029494;28;20036;-87
2022/12/10 07:42:38;;;;;;;114.47;57.20;;;;;;;-2.67;100.00;100812.81;5026341;28;20379;-87
2022/12/10 07:45:04;;;;;;;109.90;54.03;;;;;;;-2.67;100.00;100823.22;5028632;28;20024;-87
2022/12/10 07:47:29;;;;;;;104.05;51.53;;;;;;;-2.68;100.00;100821.47;5035491;28;20052;-87
2022/12/10 07:49:54;;;;;;;109.00;49.17;;;;;;;-2.84;100.00;100807.56;5029083;28;20036;-87
2022/12/10 07:52:20;;;;;;;104.30;50.10;;;;;;;-2.80;100.00;100817.09;5030469;28;20020;-86
2022/12/10 07:54:45;;;;;;;110.18;53.10;;;;;;;-2.74;100.00;100829.28;5034801;28;20029;-85
2022/12/10 07:57:10;;;;;;;114.03;53.88;;;;;;;-2.76;100.00;100824.94;5037408;28;20018;-86
2022/12/10 07:59:35;;;;;;;114.65;54.33;;;;;;;-2.84;100.00;100807.56;5028261;28;20025;-85
2022/12/10 08:02:01;;;;;;;116.88;53.72;;;;;;;-2.75;100.00;100823.22;5030910;28;20036;-85
2022/12/10 08:04:32;;;;;;;114.32;54.08;;;;;;;-2.70;100.00;100833.63;5044332;28;20588;-87
2022/12/10 08:06:58;;;;;;;119.55;52.47;;;;;;;-2.75;100.00;100818.00;5028054;28;20113;-88
2022/12/10 08:09:23;;;;;;;116.70;53.95;;;;;;;-2.75;100.00;100831.03;5037233;28;20127;-87
2022/12/10 08:11:48;;;;;;;115.75;53.75;;;;;;;-2.76;100.00;100824.03;5035132;28;20132;-87
2022/12/10 08:14:14;;;;;;;112.70;52.47;;;;;;;-2.78;100.00;100817.97;5027916;28;20127;-88
2022/12/10 08:16:39;;;;;;;115.50;52.03;;;;;;;-2.79;100.00;100817.13;5027033;28;20494;-87
2022/12/10 08:19:04;;;;;;;110.30;49.92;;;;;;;-2.68;100.00;100837.97;5028327;28;20030;-87
2022/12/10 08:21:32;;;;;;;111.57;52.28;;;;;;;-2.66;100.00;100846.69;5026764;28;20251;-88
2022/12/10 08:23:58;;;;;;;106.18;50.78;;;;;;;-2.67;100.00;100855.38;5023012;28;20029;-88
2022/12/10 08:26:26;;;;;;;109.47;50.60;;;;;;;-2.71;100.00;100844.94;5024639;28;20037;-88
2022/12/10 08:28:53;;;;;;;107.60;49.45;;;;;;;-2.60;100.00;100856.25;5018686;28;20037;-88
2022/12/10 08:31:20;;;;;;;107.30;49.83;;;;;;;-2.55;100.00;100865.84;5016398;28;20112;-88
2022/12/10 08:33:46;;;;;;;101.03;49.58;;;;;;;-2.51;100.00;100857.16;5005769;28;20506;-87
2022/12/10 08:36:14;;;;;;;102.80;48.95;;;;;;;-2.53;100.00;100852.78;5012698;28;20033;-86
2022/12/10 08:38:40;;;;;;;112.28;51.47;;;;;;;-2.48;100.00;100871.03;5024861;28;20076;-87
2022/12/10 08:41:11;;;;;;;110.10;50.38;;;;;;;-2.48;100.00;100865.84;5031608;28;20029;-88
2022/12/10 08:43:36;;;;;;;110.43;48.33;;;;;;;-2.51;100.00;100864.97;5022009;28;20051;-89
2022/12/10 08:46:02;;;;;;;96.00;44.92;;;;;;;-2.45;100.00;100874.53;5025117;28;20033;-91
2022/12/10 08:48:27;;;;;;;103.45;48.40;;;;;;;-2.44;100.00;100878.00;5018488;28;20207;-88
2022/12/10 08:50:52;;;;;;;105.10;48.65;;;;;;;-2.44;100.00;100884.09;5016353;28;20029;-89
2022/12/10 08:53:18;;;;;;;106.13;47.65;;;;;;;-2.59;100.00;100858.88;5043774;28;20025;-89
2022/12/10 08:55:43;;;;;;;107.70;47.97;;;;;;;-2.51;100.00;100877.09;5041869;28;20074;-88
2022/12/10 08:58:09;;;;;;;99.63;47.38;;;;;;;-2.56;100.00;100866.66;5027397;28;20028;-89
2022/12/10 09:00:36;;;;;;;107.75;47.03;;;;;;;-2.48;100.00;100882.34;5034915;28;20533;-87
2022/12/10 09:03:01;;;;;;;98.25;46.67;;;;;;;-2.44;100.00;100885.81;5029525;28;20026;-87
2022/12/10 09:05:27;;;;;;;106.75;50.45;;;;;;;-2.46;100.00;100875.41;5012778;28;20120;-89
2022/12/10 09:07:52;;;;;;;97.82;46.58;;;;;;;-2.52;100.00;100871.03;5007699;28;20033;-88
2022/12/10 09:10:17;;;;;;;101.72;47.25;;;;;;;-2.38;100.00;100886.72;5022102;28;20021;-88
2022/12/10 09:12:43;;;;;;;104.90;46.25;;;;;;;-2.46;100.00;100877.16;5028524;28;20054;-88
2022/12/10 09:15:09;;;;;;;100.15;46.15;;;;;;;-2.37;100.00;100888.47;5021968;28;20082;-87
2022/12/10 09:17:36;;;;;;;106.43;46.92;;;;;;;-2.34;100.00;100887.56;5024778;28;20172;-88
2022/12/10 09:20:01;;;;;;;108.10;47.30;;;;;;;-2.35;100.00;100889.31;5024598;28;20566;-88
2022/12/10 09:22:28;;;;;;;104.22;46.75;;;;;;;-2.39;100.00;100889.31;5028337;28;20107;-87
2022/12/10 09:24:53;;;;;;;100.32;47.08;;;;;;;-2.35;100.00;100891.06;5025276;28;20824;-88
2022/12/10 09:27:20;;;;;;;104.10;45.45;;;;;;;-2.31;100.00;100896.28;5022106;28;20052;-89
2022/12/10 09:29:45;;;;;;;109.38;47.55;;;;;;;-2.30;100.00;100902.38;5027257;28;20548;-89
2022/12/10 09:32:10;;;;;;;103.75;46.95;;;;;;;-2.31;100.00;100901.50;5029743;28;20045;-88
2022/12/10 09:34:36;;;;;;;110.45;47.92;;;;;;;-2.30;100.00;100900.66;5027845;28;20021;-88
2022/12/10 09:37:01;;;;;;;106.50;48.28;;;;;;;-2.16;100.00;100905.88;5026744;28;20044;-88
2022/12/10 09:39:26;;;;;;;106.10;46.70;;;;;;;-2.23;100.00;100891.09;5027719;28;20048;-89
2022/12/10 09:42:03;;;;;;;100.88;45.70;;;;;;;-2.18;100.00;100891.97;5026235;28;20160;-87
2022/12/10 09:44:45;;;;;;;100.28;44.72;;;;;;;-2.06;100.00;100905.03;5016342;28;20178;-88
2022/12/10 09:47:11;;;;;;;105.10;47.55;;;;;;;-2.05;100.00;100911.09;5026925;28;20064;-87
2022/12/10 09:50:01;;;;;;;101.63;43.47;;;;;;;-2.15;100.00;100897.19;5029332;28;20437;-88
2022/12/10 09:52:33;;;;;;;95.43;43.90;;;;;;;-2.19;100.00;100911.09;5027646;28;20067;-88
2022/12/10 09:55:03;;;;;;;101.18;43.85;;;;;;;-2.16;100.00;100925.88;5028342;28;20045;-88
2022/12/10 09:57:38;;;;;;;92.95;43.40;;;;;;;-2.11;100.00;100926.75;5027062;28;20478;-89
2022/12/10 10:00:15;;;;;;;99.05;43.58;;;;;;;-2.18;100.00;100927.59;5050854;28;22095;-89
2022/12/10 10:02:41;;;;;;;99.93;43.83;;;;;;;-2.19;100.00;100926.72;5035613;28;20394;-88
2022/12/10 10:05:12;;;;;;;93.45;43.42;;;;;;;-2.17;100.00;100932.84;5029084;28;20044;-88
2022/12/10 10:07:48;;;;;;;93.85;41.70;;;;;;;-2.12;100.00;100931.09;5029991;28;20033;-88
2022/12/10 10:10:24;;;;;;;85.72;40.20;;;;;;;-2.13;100.00;100931.09;5044527;28;20561;-88
2022/12/10 10:12:53;;;;;;;93.60;42.50;;;;;;;-2.12;100.00;100928.50;5031315;28;20099;-87
2022/12/10 10:15:24;;;;;;;98.25;43.70;;;;;;;-2.04;100.00;100926.78;5029954;28;20033;-88
2022/12/10 10:17:55;;;;;;;97.53;45.67;;;;;;;-1.99;100.00;100921.56;5031086;28;20486;-88
2022/12/10 10:20:21;;;;;;;93.78;45.28;;;;;;;-1.89;100.00;100930.28;5027299;28;20098;-88
2022/12/10 10:22:46;;;;;;;89.93;43.92;;;;;;;-1.84;100.00;100933.75;5027457;28;20026;-89
2022/12/10 10:25:17;;;;;;;93.88;43.00;;;;;;;-1.82;100.00;100925.06;5027872;28;20057;-89
2022/12/10 10:27:43;;;;;;;93.93;43.63;;;;;;;-1.83;100.00;100931.16;5030475;28;20106;-88
2022/12/10 10:30:18;;;;;;;85.35;41.30;;;;;;;-1.91;100.00;100927.66;5043484;28;20441;-87
2022/12/10 10:32:51;;;;;;;101.68;48.20;;;;;;;-1.94;100.00;100937.22;5028002;28;20040;-89
2022/12/10 10:35:30;;;;;;;89.22;39.63;;;;;;;-1.96;100.00;100936.38;5027062;28;20033;-90
2022/12/10 10:37:59;;;;;;;82.53;40.50;;;;;;;-2.00;100.00;100930.28;5025886;28;20083;-89
2022/12/10 10:40:39;;;;;;;88.82;42.10;;;;;;;-1.97;100.00;100927.63;5036527;28;20087;-87
2022/12/10 10:43:05;;;;;;;83.18;41.10;;;;;;;-1.94;100.00;100926.78;5036813;28;20436;-87
2022/12/10 10:45:30;;;;;;;84.65;40.67;;;;;;;-1.88;100.00;100926.78;5032148;28;20037;-88
2022/12/10 10:48:17;;;;;;;81.55;39.30;;;;;;;-1.82;100.00;100925.06;5025391;28;20084;-89
2022/12/10 10:50:55;;;;;;;92.43;43.28;;;;;;;-1.89;100.00;100922.44;5039569;28;20175;-87
2022/12/10 10:53:38;;;;;;;91.50;43.53;;;;;;;-1.82;100.00;100926.81;5044530;28;20159;-89
2022/12/10 10:56:17;;;;;;;94.22;41.72;;;;;;;-1.90;100.00;100923.31;5034348;28;20052;-88
2022/12/10 10:59:03;;;;;;;84.47;40.53;;;;;;;-1.83;100.00;100927.69;5026604;28;20029;-90
2022/12/10 11:01:50;;;;;;;88.28;41.97;;;;;;;-1.88;100.00;100918.97;5021594;28;20032;-89
2022/12/10 11:04:18;;;;;;;89.28;43.75;;;;;;;-1.84;100.00;100929.44;5006920;28;20045;-88
2022/12/10 11:06:44;;;;;;;90.38;43.45;;;;;;;-1.76;100.00;100927.69;5024239;28;20029;-89
2022/12/10 11:09:27;;;;;;;96.60;46.97;;;;;;;-1.71;100.00;100924.19;5025446;28;20035;-90
2022/12/10 11:11:59;;;;;;;95.00;43.92;;;;;;;-1.73;100.00;100915.50;5024132;28;20053;-90